Terminal Aerodrome Forecast
Issued by NWS

Home | Current Version | Previous Version | Text Only | Print | Product List | Glossary On
Versions: 1 2 3 4 5 6 7 8 9 10 11 12 13 14 15
000
FTUS44 KTSA 281100
TAFMLC
TAF
KMLC 281120Z 2812/2912 16004KT P6SM VCSH BKN100
     FM281600 18009KT P6SM SCT120
     FM282300 12006KT P6SM SCT250
     FM290800 14011KT P6SM SCT250=

USA.gov is the U.S. government's official web portal to all federal, state and local government web resources and services.